Ashton, ID (83420)

3:08 PM MDT on July 26, 2016 (GMT -0600)
Fremont County Courthouse | | Change Station
Active Advisory: Fire Weather Warning Active Notice: Record Report

Elev 4972 ft 43.97 °N, 111.68 °W | Updated 59 seconds ago

Clear
Clear
92.1 °F
Feels Like 88 °F
N
3.0
Wind Variable Wind from West
Gusts 15.0 mph

Today
High -- | Low -- °F
--% Chance of Precip.
Yesterday
High -- | Low -- °F
Precip. -- in
Pressure 30.00 in
Visibility 10.0 miles
Clouds Clear
Heat Index 88 °F
Dew Point 44 °F
Humidity 14%
Rainfall 0.00 in
Snow Depth Not available.
6:07 AM 8:55 PM
Waning Gibbous, 51% visible
METAR KDIJ 262056Z AUTO VRB03KT 10SM CLR 31/M02 A3022 RMK AO2 SLP159 T03061022 56012
Pressure 30.00 in
Visibility 10.0 miles
Clouds Clear
Heat Index 88 °F
Dew Point 44 °F
Humidity 14%
Rainfall 0.00 in
Snow Depth Not available.
6:07 AM 8:55 PM
Waning Gibbous, 51% visible
METAR KDIJ 262056Z AUTO VRB03KT 10SM CLR 31/M02 A3022 RMK AO2 SLP159 T03061022 56012

10-Day Weather Forecast

Almanac

Astronomy

Jul. 26, 2016 Rise Set
Actual Time
Civil Twilight
Nautical Twilight
Astronomical Twilight
Moon
Length of Visible Light
Length of Day
Tomorrow will be .
, % of the Moon is Illuminated

Today's Extremes

State Highs State Lows

Community

WunderPhotos

Upload Photos

1,927,688 photos uploaded!

WunderBlog® & News

Nearby

Air Quality

  Air Quality AQ Index Pollutant
Not available.

Snow Depth

Station Depth Elevation

Earthquake Activity

City Distance Mag. Time & Date
Minimum magnitude displayed is 2.5.

Coastal Water Temperatures

Place Temperature

Stations

Nearby Weather Stations

Station Location Temp. Windchill Dew Point Humidity Wind Precip. Elev Updated Type
                   

Watches & Warnings

Fire Weather Warning
Issued: 2:06 PM MDT Jul. 26, 2016 – National Weather Service

... Red flag warning remains in effect until 10 PM MDT this
evening for scattered thunderstorms for fire weather zone 411...

* affected area... fire weather zone 411... primarily the
Centennial Mountains from Monida Pass eastward through Island
Park.

* Thunderstorms... scattered thunderstorms continuing through 10
mph MDT.

* Precipitation: generally less than 0.10 inches.

* Outflow winds: gusts of 40 to 50 mph possible near stronger
thunderstorms.

* Impacts... any fires that develop will likely spread rapidly.
Outdoor burning is not recommended.

Precautionary/preparedness actions...

A red flag warning means that critical fire weather conditions
are likely. Fires may experience rapid rates of growth. Please
advise the appropriate officials or fire crews in the field of
the red flag warning for portions of southeast Idaho.